Zeus — V2OR — position and weather

sailwx.info

Track history (hours):
 
Tides and Currents Weather Stations Pressure Air Temp Water Temp Dewpoint Dewpoint Depression Visibility Wind Speed Wind Dir Waves Ship Positions

Zeus

Last reported at 2016-Jun-25 09:33 UTC. Time now 2016-Jun-25 10:39 UTC.
Position N 62°01' E 004°40'.

Length 89 m; draft 4 m.

Type: Tanker. MMSI: 304011025.

Date/timePositionNaut miles runAvg speedWind from/ knotsBaromVisibWave heightAir tempDewpointWater temp
2016-Jun-25 09:33N 62°01' E 004°40'17310.1
2016-Jun-24 16:26N 59°09' E 004°44'8 9.0
2016-Jun-24 15:33N 59°01' E 004°48'9 9.1
2016-Jun-24 14:33N 58°52' E 004°53'9 9.2
2016-Jun-24 13:33N 58°43' E 004°57'10 9.6
2016-Jun-24 12:33N 58°34' E 005°02'26210.4
2016-Jun-23 11:25N 54°12' E 005°08'910.5
2016-Jun-23 10:32N 54°02' E 005°06'9411.7
2016-Jun-23 02:33N 52°39' E 003°56'1110.3
2016-Jun-23 01:32N 52°31' E 003°44'57 8.9
2016-Jun-22 19:07N 51°35' E 003°24'611.2
2016-Jun-22 18:33N 51°30' E 003°29'1111.0
2016-Jun-22 17:33N 51°23' E 003°43'5 5.2
2016-Jun-22 16:33N 51°20' E 003°49'7 7.1
2016-Jun-22 15:33N 51°13' E 003°48'8 7.3
2016-Jun-22 14:31N 51°05' E 003°45'0 0.0
2016-Jun-22 13:33N 51°05' E 003°45'0 0.0
2016-Jun-22 12:31N 51°05' E 003°45'0 0.0
2016-Jun-22 11:32N 51°05' E 003°45'0 0.1
2016-Jun-22 10:20N 51°05' E 003°45'0 0.0
2016-Jun-22 09:27N 51°05' E 003°45'0 0.0
2016-Jun-22 08:29N 51°05' E 003°45'0 0.0
2016-Jun-22 07:30N 51°05' E 003°45'0 0.0
2016-Jun-22 06:30N 51°05' E 003°45'0 0.0
2016-Jun-22 05:29N 51°05' E 003°45'0 0.0
2016-Jun-22 04:31N 51°05' E 003°45'0 0.0
2016-Jun-22 03:33N 51°05' E 003°45'0 0.0
2016-Jun-22 02:32N 51°05' E 003°45'0 0.0
2016-Jun-22 01:26N 51°05' E 003°45'0 0.0
2016-Jun-22 00:30N 51°05' E 003°45'0 0.0
2016-Jun-21 23:24N 51°05' E 003°45'0 0.0
2016-Jun-21 22:32N 51°05' E 003°45'0 0.0
2016-Jun-21 21:26N 51°05' E 003°45'0 0.0
2016-Jun-21 20:30N 51°05' E 003°45'0 0.0
2016-Jun-21 19:31N 51°05' E 003°45'0 0.0
2016-Jun-21 18:32N 51°05' E 003°45'0 0.0
2016-Jun-21 17:28N 51°05' E 003°45'0 0.0
2016-Jun-21 16:33N 51°05' E 003°45'0 0.2
2016-Jun-21 15:28N 51°06' E 003°45'0 0.0
2016-Jun-21 14:30N 51°06' E 003°45'0 0.0
2016-Jun-21 13:26N 51°06' E 003°45'0 0.0
2016-Jun-21 12:32N 51°06' E 003°45'0 0.0
2016-Jun-21 11:29N 51°06' E 003°45'0 0.0
2016-Jun-21 10:33N 51°06' E 003°45'0 0.0
2016-Jun-21 09:33N 51°06' E 003°45'0 0.0
2016-Jun-21 08:31N 51°06' E 003°45'0 0.0
2016-Jun-21 07:26N 51°06' E 003°45'0 0.0
2016-Jun-21 06:33N 51°06' E 003°45'0 0.0
2016-Jun-21 04:30N 51°06' E 003°45'0 0.0
2016-Jun-21 03:28N 51°06' E 003°45'0 0.0
2016-Jun-21 02:31N 51°06' E 003°45'0 0.0
2016-Jun-21 01:31N 51°06' E 003°45'0 0.0
2016-Jun-21 00:31N 51°06' E 003°45'0 0.0
2016-Jun-20 23:30N 51°06' E 003°45'0 0.0
2016-Jun-20 22:32N 51°06' E 003°45'0 0.0
2016-Jun-20 21:30N 51°06' E 003°45'0 0.0
2016-Jun-20 20:26N 51°06' E 003°45'0 0.0
2016-Jun-20 19:33N 51°06' E 003°45'0 0.0
2016-Jun-20 18:33N 51°06' E 003°45'0 0.0
2016-Jun-20 17:31N 51°06' E 003°45'0 0.0
2016-Jun-20 16:28N 51°06' E 003°45'1 0.8
2016-Jun-20 15:30N 51°06' E 003°44'0 0.0
2016-Jun-20 14:27N 51°06' E 003°44'0 0.0
2016-Jun-20 13:33N 51°06' E 003°44'0 0.0
2016-Jun-20 12:32N 51°06' E 003°44'0 0.0
2016-Jun-20 11:33N 51°06' E 003°44'0 0.0
2016-Jun-20 10:31N 51°06' E 003°44'0 0.0
2016-Jun-20 09:28N 51°06' E 003°44'0 0.0
2016-Jun-20 08:33N 51°06' E 003°44'0 0.0
2016-Jun-20 07:33N 51°06' E 003°44'0 0.0
2016-Jun-20 06:33N 51°06' E 003°44'0 0.0
2016-Jun-20 05:33N 51°06' E 003°44'0 0.0
2016-Jun-20 04:33N 51°06' E 003°44'0 0.0
2016-Jun-20 03:33N 51°06' E 003°44'0 0.0
2016-Jun-20 02:33N 51°06' E 003°44'0 0.0
2016-Jun-20 01:33N 51°06' E 003°44'0 0.0
2016-Jun-20 00:33N 51°06' E 003°44'2 2.5
2016-Jun-19 23:33N 51°08' E 003°46'8 8.5
2016-Jun-19 22:34N 51°16' E 003°50'4 3.8
2016-Jun-19 21:33N 51°20' E 003°49'7 7.3
2016-Jun-19 20:34N 51°25' E 003°40'10 9.5
2016-Jun-19 19:33N 51°30' E 003°28'44 8.9
2016-Jun-19 14:33N 52°14' E 003°26'9 8.5
2016-Jun-19 13:33N 52°22' E 003°32'108 9.7
2016-Jun-19 02:28N 53°58' E 004°54'910.2
2016-Jun-19 01:33N 54°07' E 004°59'274 9.7
2016-Jun-17 21:23N 58°08' E 008°53'3310.9
2016-Jun-17 18:23N 58°37' E 009°24'28 9.1
2016-Jun-17 15:20N 59°03' E 009°42'6 0.4
2016-Jun-16 23:25N 59°07' E 009°34'0 0.0
2016-Jun-16 21:30N 59°07' E 009°34'3 0.4
2016-Jun-16 14:33N 59°05' E 009°38'10 8.8
2016-Jun-16 13:27N 58°57' E 009°48'11 9.7
2016-Jun-16 12:20N 58°57' E 010°09'810.5
2016-Jun-16 11:33N 58°59' E 010°24'1110.9
2016-Jun-16 10:33N 59°01' E 010°44'8 8.2
2016-Jun-16 09:34N 59°05' E 010°58'6 5.7
2016-Jun-16 08:33N 59°11' E 010°57'0 0.0
2016-Jun-16 07:33N 59°11' E 010°57'0 0.0
2016-Jun-16 06:32N 59°11' E 010°57'0 0.0
2016-Jun-16 05:33N 59°11' E 010°57'0 0.0
2016-Jun-16 04:32N 59°11' E 010°57'0 0.0
2016-Jun-16 03:33N 59°11' E 010°57'0 0.0
2016-Jun-16 02:31N 59°11' E 010°57'0 0.0
2016-Jun-16 01:32N 59°11' E 010°57'0 0.0
2016-Jun-16 00:33N 59°11' E 010°57'0 0.0
2016-Jun-15 23:33N 59°11' E 010°57'0 0.0
2016-Jun-15 22:32N 59°11' E 010°57'0 0.0
2016-Jun-15 21:33N 59°11' E 010°57'0 0.0
2016-Jun-15 20:33N 59°11' E 010°57'0 0.0
2016-Jun-15 19:32N 59°11' E 010°57'5 5.1
2016-Jun-15 18:33N 59°06' E 010°58'5 4.8
2016-Jun-15 17:32N 59°01' E 010°58'0 0.0
2016-Jun-15 16:28N 59°01' E 010°58'0 0.0
2016-Jun-15 15:33N 59°01' E 010°58'5 5.2
2016-Jun-15 14:33N 59°02' E 010°48'1110.5
2016-Jun-15 13:33N 58°56' E 010°31'1010.5
2016-Jun-15 12:33N 58°50' E 010°15'  
Track history (hours):
 
Tides and Currents Weather Stations Pressure Air Temp Water Temp Dewpoint Dewpoint Depression Visibility Wind Speed Wind Dir Waves Ship Positions

Zeus

Last reported at 2016-Jun-25 09:33 UTC. Time now 2016-Jun-25 10:39 UTC.
Position N 62°01' E 004°40'.

Length 89 m; draft 4 m.

Type: Tanker. MMSI: 304011025.

Date/timePositionNaut miles runAvg speedWind from/ knotsBaromVisibWave heightAir tempDewpointWater temp
2016-Jun-25 09:33N 62°01' E 004°40'17310.1
2016-Jun-24 16:26N 59°09' E 004°44'8 9.0
2016-Jun-24 15:33N 59°01' E 004°48'9 9.1
2016-Jun-24 14:33N 58°52' E 004°53'9 9.2
2016-Jun-24 13:33N 58°43' E 004°57'10 9.6
2016-Jun-24 12:33N 58°34' E 005°02'26210.4
2016-Jun-23 11:25N 54°12' E 005°08'910.5
2016-Jun-23 10:32N 54°02' E 005°06'9411.7
2016-Jun-23 02:33N 52°39' E 003°56'1110.3
2016-Jun-23 01:32N 52°31' E 003°44'57 8.9
2016-Jun-22 19:07N 51°35' E 003°24'611.2
2016-Jun-22 18:33N 51°30' E 003°29'1111.0
2016-Jun-22 17:33N 51°23' E 003°43'5 5.2
2016-Jun-22 16:33N 51°20' E 003°49'7 7.1
2016-Jun-22 15:33N 51°13' E 003°48'8 7.3
2016-Jun-22 14:31N 51°05' E 003°45'0 0.0
2016-Jun-22 13:33N 51°05' E 003°45'0 0.0
2016-Jun-22 12:31N 51°05' E 003°45'0 0.0
2016-Jun-22 11:32N 51°05' E 003°45'0 0.1
2016-Jun-22 10:20N 51°05' E 003°45'0 0.0
2016-Jun-22 09:27N 51°05' E 003°45'0 0.0
2016-Jun-22 08:29N 51°05' E 003°45'0 0.0
2016-Jun-22 07:30N 51°05' E 003°45'0 0.0
2016-Jun-22 06:30N 51°05' E 003°45'0 0.0
2016-Jun-22 05:29N 51°05' E 003°45'0 0.0
2016-Jun-22 04:31N 51°05' E 003°45'0 0.0
2016-Jun-22 03:33N 51°05' E 003°45'0 0.0
2016-Jun-22 02:32N 51°05' E 003°45'0 0.0
2016-Jun-22 01:26N 51°05' E 003°45'0 0.0
2016-Jun-22 00:30N 51°05' E 003°45'0 0.0
2016-Jun-21 23:24N 51°05' E 003°45'0 0.0
2016-Jun-21 22:32N 51°05' E 003°45'0 0.0
2016-Jun-21 21:26N 51°05' E 003°45'0 0.0
2016-Jun-21 20:30N 51°05' E 003°45'0 0.0
2016-Jun-21 19:31N 51°05' E 003°45'0 0.0
2016-Jun-21 18:32N 51°05' E 003°45'0 0.0
2016-Jun-21 17:28N 51°05' E 003°45'0 0.0
2016-Jun-21 16:33N 51°05' E 003°45'0 0.2
2016-Jun-21 15:28N 51°06' E 003°45'0 0.0
2016-Jun-21 14:30N 51°06' E 003°45'0 0.0
2016-Jun-21 13:26N 51°06' E 003°45'0 0.0
2016-Jun-21 12:32N 51°06' E 003°45'0 0.0
2016-Jun-21 11:29N 51°06' E 003°45'0 0.0
2016-Jun-21 10:33N 51°06' E 003°45'0 0.0
2016-Jun-21 09:33N 51°06' E 003°45'0 0.0
2016-Jun-21 08:31N 51°06' E 003°45'0 0.0
2016-Jun-21 07:26N 51°06' E 003°45'0 0.0
2016-Jun-21 06:33N 51°06' E 003°45'0 0.0
2016-Jun-21 04:30N 51°06' E 003°45'0 0.0
2016-Jun-21 03:28N 51°06' E 003°45'0 0.0
2016-Jun-21 02:31N 51°06' E 003°45'0 0.0
2016-Jun-21 01:31N 51°06' E 003°45'0 0.0
2016-Jun-21 00:31N 51°06' E 003°45'0 0.0
2016-Jun-20 23:30N 51°06' E 003°45'0 0.0
2016-Jun-20 22:32N 51°06' E 003°45'0 0.0
2016-Jun-20 21:30N 51°06' E 003°45'0 0.0
2016-Jun-20 20:26N 51°06' E 003°45'0 0.0
2016-Jun-20 19:33N 51°06' E 003°45'0 0.0
2016-Jun-20 18:33N 51°06' E 003°45'0 0.0
2016-Jun-20 17:31N 51°06' E 003°45'0 0.0
2016-Jun-20 16:28N 51°06' E 003°45'1 0.8
2016-Jun-20 15:30N 51°06' E 003°44'0 0.0
2016-Jun-20 14:27N 51°06' E 003°44'0 0.0
2016-Jun-20 13:33N 51°06' E 003°44'0 0.0
2016-Jun-20 12:32N 51°06' E 003°44'0 0.0
2016-Jun-20 11:33N 51°06' E 003°44'0 0.0
2016-Jun-20 10:31N 51°06' E 003°44'0 0.0
2016-Jun-20 09:28N 51°06' E 003°44'0 0.0
2016-Jun-20 08:33N 51°06' E 003°44'0 0.0
2016-Jun-20 07:33N 51°06' E 003°44'0 0.0
2016-Jun-20 06:33N 51°06' E 003°44'0 0.0
2016-Jun-20 05:33N 51°06' E 003°44'0 0.0
2016-Jun-20 04:33N 51°06' E 003°44'0 0.0
2016-Jun-20 03:33N 51°06' E 003°44'0 0.0
2016-Jun-20 02:33N 51°06' E 003°44'0 0.0
2016-Jun-20 01:33N 51°06' E 003°44'0 0.0
2016-Jun-20 00:33N 51°06' E 003°44'2 2.5
2016-Jun-19 23:33N 51°08' E 003°46'8 8.5
2016-Jun-19 22:34N 51°16' E 003°50'4 3.8
2016-Jun-19 21:33N 51°20' E 003°49'7 7.3
2016-Jun-19 20:34N 51°25' E 003°40'10 9.5
2016-Jun-19 19:33N 51°30' E 003°28'44 8.9
2016-Jun-19 14:33N 52°14' E 003°26'9 8.5
2016-Jun-19 13:33N 52°22' E 003°32'108 9.7
2016-Jun-19 02:28N 53°58' E 004°54'910.2
2016-Jun-19 01:33N 54°07' E 004°59'274 9.7
2016-Jun-17 21:23N 58°08' E 008°53'3310.9
2016-Jun-17 18:23N 58°37' E 009°24'28 9.1
2016-Jun-17 15:20N 59°03' E 009°42'6 0.4
2016-Jun-16 23:25N 59°07' E 009°34'0 0.0
2016-Jun-16 21:30N 59°07' E 009°34'3 0.4
2016-Jun-16 14:33N 59°05' E 009°38'10 8.8
2016-Jun-16 13:27N 58°57' E 009°48'11 9.7
2016-Jun-16 12:20N 58°57' E 010°09'810.5
2016-Jun-16 11:33N 58°59' E 010°24'1110.9
2016-Jun-16 10:33N 59°01' E 010°44'8 8.2
2016-Jun-16 09:34N 59°05' E 010°58'6 5.7
2016-Jun-16 08:33N 59°11' E 010°57'0 0.0
2016-Jun-16 07:33N 59°11' E 010°57'0 0.0
2016-Jun-16 06:32N 59°11' E 010°57'0 0.0
2016-Jun-16 05:33N 59°11' E 010°57'0 0.0
2016-Jun-16 04:32N 59°11' E 010°57'0 0.0
2016-Jun-16 03:33N 59°11' E 010°57'0 0.0
2016-Jun-16 02:31N 59°11' E 010°57'0 0.0
2016-Jun-16 01:32N 59°11' E 010°57'0 0.0
2016-Jun-16 00:33N 59°11' E 010°57'0 0.0
2016-Jun-15 23:33N 59°11' E 010°57'0 0.0
2016-Jun-15 22:32N 59°11' E 010°57'0 0.0
2016-Jun-15 21:33N 59°11' E 010°57'0 0.0
2016-Jun-15 20:33N 59°11' E 010°57'0 0.0
2016-Jun-15 19:32N 59°11' E 010°57'5 5.1
2016-Jun-15 18:33N 59°06' E 010°58'5 4.8
2016-Jun-15 17:32N 59°01' E 010°58'0 0.0
2016-Jun-15 16:28N 59°01' E 010°58'0 0.0
2016-Jun-15 15:33N 59°01' E 010°58'5 5.2
2016-Jun-15 14:33N 59°02' E 010°48'1110.5
2016-Jun-15 13:33N 58°56' E 010°31'1010.5
2016-Jun-15 12:33N 58°50' E 010°15'  

Dump ship's entire track history